Time;durP1;ratioP1;P1;durP2;ratioP2;P2;SDS_P1;SDS_P2;PMS_P1;PMS_P2;Temp;Humidity;BMP_temperature;BMP_pressure;BME280_temperature;BME280_humidity;BME280_pressure;Samples;Min_cycle;Max_cycle;Signal;HPM_P1;HPM_P2
2022/05/03 05:32:04;;;;;;;11.95;10.77;;;17.20;99.90;;;;;;5173436;23;20044;-81
2022/05/03 05:34:29;;;;;;;12.48;11.30;;;17.00;99.90;;;;;;4943974;29;20036;-80
2022/05/03 05:36:55;;;;;;;11.27;10.18;;;17.20;99.90;;;;;;4947624;28;20024;-82
2022/05/03 05:39:20;;;;;;;11.05;10.00;;;17.20;99.90;;;;;;4955692;29;20031;-83
2022/05/03 05:41:54;;;;;;;11.60;10.40;;;17.00;99.90;;;;;;4942141;29;20024;-81
2022/05/03 05:44:20;;;;;;;10.93;9.95;;;16.20;99.90;;;;;;4956372;29;20027;-81
2022/05/03 05:46:45;;;;;;;11.23;10.13;;;16.20;99.90;;;;;;4951531;29;20380;-82
2022/05/03 05:49:11;;;;;;;12.63;10.38;;;16.50;99.90;;;;;;4951328;29;20050;-82
2022/05/03 05:51:36;;;;;;;11.38;10.23;;;17.20;99.90;;;;;;4939445;29;20447;-81
2022/05/03 05:54:02;;;;;;;11.77;10.50;;;17.40;99.90;;;;;;4948632;29;20034;-81
2022/05/03 05:56:28;;;;;;;12.05;10.40;;;17.30;99.90;;;;;;4955502;28;20035;-82
2022/05/03 05:58:54;;;;;;;12.52;11.23;;;17.20;99.90;;;;;;4947294;28;20038;-82
2022/05/03 06:01:26;;;;;;;13.25;11.05;;;16.60;99.90;;;;;;4953775;28;20114;-81
2022/05/03 06:03:52;;;;;;;12.88;11.85;;;16.70;99.90;;;;;;4954927;29;20501;-82
2022/05/03 06:06:17;;;;;;;12.20;10.95;;;16.70;99.90;;;;;;4948315;29;20046;-81
2022/05/03 06:08:43;;;;;;;12.85;11.65;;;16.50;99.90;;;;;;4944572;28;20031;-82
2022/05/03 06:11:09;;;;;;;12.27;11.07;;;16.50;99.90;;;;;;4951246;29;20027;-82
2022/05/03 06:13:35;;;;;;;13.07;11.88;;;15.90;99.90;;;;;;4953308;29;20031;-80
2022/05/03 06:16:08;;;;;;;13.80;11.80;;;15.00;99.90;;;;;;4946963;29;20031;-83
2022/05/03 06:18:34;;;;;;;17.80;11.70;;;14.90;99.90;;;;;;4949388;29;20027;-82
2022/05/03 06:21:01;;;;;;;13.90;12.32;;;15.00;99.90;;;;;;4953540;28;20064;-82
2022/05/03 06:23:27;;;;;;;16.05;12.75;;;14.80;99.90;;;;;;4944553;29;20019;-82
2022/05/03 06:25:52;;;;;;;14.23;12.73;;;15.20;99.90;;;;;;4950713;28;20040;-82
2022/05/03 06:28:19;;;;;;;14.40;12.68;;;14.90;99.90;;;;;;4951994;29;20550;-82
2022/05/03 06:30:44;;;;;;;14.00;12.52;;;14.80;99.90;;;;;;4949794;29;20081;-81
2022/05/03 06:33:10;;;;;;;14.98;13.45;;;14.50;99.90;;;;;;4958567;29;20039;-81
2022/05/03 06:35:36;;;;;;;14.43;13.15;;;14.70;99.90;;;;;;4950233;28;20059;-82
2022/05/03 06:38:01;;;;;;;15.02;12.38;;;15.00;99.90;;;;;;4950264;28;20038;-81
2022/05/03 06:40:27;;;;;;;16.02;12.38;;;15.50;99.90;;;;;;4956631;29;20024;-82
2022/05/03 06:42:54;;;;;;;13.82;12.48;;;15.70;99.90;;;;;;4950584;29;20023;-82
2022/05/03 06:45:20;;;;;;;19.30;13.80;;;15.80;99.90;;;;;;4948512;29;20027;-81
2022/05/03 06:47:48;;;;;;;14.90;11.82;;;15.80;99.90;;;;;;4948981;28;20023;-82
2022/05/03 06:50:13;;;;;;;14.00;12.75;;;15.60;99.90;;;;;;4946445;28;20035;-81
2022/05/03 06:52:39;;;;;;;13.68;12.35;;;15.20;99.90;;;;;;4951862;29;20054;-81
2022/05/03 06:55:06;;;;;;;13.82;12.43;;;15.30;99.90;;;;;;4951534;29;20051;-82
2022/05/03 06:57:33;;;;;;;13.15;12.00;;;15.70;99.90;;;;;;4953751;29;20019;-82
2022/05/03 07:00:01;;;;;;;14.40;12.90;;;15.90;99.90;;;;;;4955519;29;20110;-82
2022/05/03 07:02:29;;;;;;;14.98;13.43;;;16.20;99.90;;;;;;4952343;28;20027;-81
2022/05/03 07:04:55;;;;;;;13.45;12.18;;;16.30;99.90;;;;;;4953296;29;20157;-81
2022/05/03 07:07:20;;;;;;;13.82;12.52;;;16.30;99.90;;;;;;4957401;29;20050;-82
2022/05/03 07:09:46;;;;;;;14.07;12.00;;;16.40;99.90;;;;;;4953305;29;20047;-81
2022/05/03 07:12:21;;;;;;;13.68;12.38;;;16.40;99.90;;;;;;4971742;28;20042;-84
2022/05/03 07:14:47;;;;;;;12.63;11.52;;;16.30;99.90;;;;;;4948587;29;20604;-81
2022/05/03 07:22:45;;;;;;;13.85;12.52;;;16.70;99.90;;;;;;4951949;29;20031;-82
2022/05/03 07:22:50;;;;;;;12.70;11.35;;;16.50;99.90;;;;;;4951918;29;20058;-79
2022/05/03 07:25:16;;;;;;;14.02;11.98;;;16.50;99.90;;;;;;4952368;29;20030;-81
2022/05/03 07:27:45;;;;;;;11.55;10.57;;;16.90;99.90;;;;;;4950584;29;20032;-80
2022/05/03 07:30:15;;;;;;;10.80;9.80;;;16.70;99.90;;;;;;4944449;28;20177;-82
2022/05/03 07:32:41;;;;;;;13.25;10.88;;;17.00;99.90;;;;;;4951202;28;20038;-81
2022/05/03 07:35:07;;;;;;;12.30;9.80;;;17.20;99.90;;;;;;4954803;29;20047;-80
2022/05/03 07:37:33;;;;;;;9.70;8.60;;;17.30;99.90;;;;;;4944693;29;20525;-79
2022/05/03 07:39:58;;;;;;;11.30;9.20;;;17.50;99.90;;;;;;4950426;29;20031;-79
2022/05/03 07:42:27;;;;;;;13.30;10.13;;;17.50;99.90;;;;;;4944195;29;20110;-78
2022/05/03 07:44:52;;;;;;;12.13;10.35;;;17.60;99.90;;;;;;4954647;28;20062;-80
2022/05/03 07:47:18;;;;;;;9.77;8.98;;;17.40;99.90;;;;;;4945597;29;20070;-80
2022/05/03 07:49:45;;;;;;;11.98;9.55;;;17.10;99.90;;;;;;4953632;29;20082;-79
2022/05/03 07:52:10;;;;;;;10.75;9.75;;;17.20;99.90;;;;;;4953797;28;20046;-79
2022/05/03 07:54:41;;;;;;;10.50;9.35;;;17.40;99.90;;;;;;4952803;29;20114;-79
2022/05/03 07:57:07;;;;;;;11.18;10.18;;;18.00;99.90;;;;;;4951710;29;20028;-80
2022/05/03 07:59:33;;;;;;;10.75;9.85;;;17.70;99.90;;;;;;4940870;29;20065;-77
2022/05/03 08:01:59;;;;;;;10.30;9.43;;;18.00;99.90;;;;;;4948184;28;20114;-78
2022/05/03 08:04:25;;;;;;;9.30;8.40;;;18.40;99.90;;;;;;4943065;29;20027;-78
2022/05/03 08:06:51;;;;;;;10.27;8.93;;;18.50;99.90;;;;;;4946695;28;20491;-79
2022/05/03 08:09:16;;;;;;;9.80;8.90;;;18.70;99.90;;;;;;4942562;29;20039;-79
2022/05/03 08:11:42;;;;;;;9.13;8.23;;;18.50;99.90;;;;;;4943698;28;20119;-79
2022/05/03 08:14:08;;;;;;;8.23;7.45;;;18.70;99.90;;;;;;4948515;29;20067;-80
2022/05/03 08:16:34;;;;;;;8.23;7.53;;;18.90;99.90;;;;;;4948143;28;20039;-79
2022/05/03 08:19:00;;;;;;;8.52;7.72;;;19.00;99.90;;;;;;4947441;28;20028;-79
2022/05/03 08:21:27;;;;;;;8.27;7.57;;;19.30;99.90;;;;;;4947662;29;20027;-80
2022/05/03 08:23:53;;;;;;;7.72;7.03;;;18.90;99.90;;;;;;4945908;29;20115;-79
2022/05/03 08:26:19;;;;;;;8.38;7.57;;;18.30;99.90;;;;;;4951350;29;20028;-79
2022/05/03 08:28:45;;;;;;;8.75;8.02;;;18.80;99.90;;;;;;4939221;29;20078;-79
2022/05/03 08:31:11;;;;;;;8.02;7.38;;;19.10;99.90;;;;;;4953920;28;20039;-80
2022/05/03 08:33:37;;;;;;;7.68;7.07;;;19.30;99.90;;;;;;4964246;28;20043;-80
2022/05/03 08:36:03;;;;;;;7.70;6.82;;;19.30;99.90;;;;;;4962623;28;20039;-80
2022/05/03 08:44:00;;;;;;;7.88;5.72;;;19.50;99.90;;;;;;4958706;28;20100;-79
2022/05/03 08:46:29;;;;;;;6.75;5.97;;;20.10;99.90;;;;;;4952465;29;20158;-81
2022/05/03 08:49:05;;;;;;;6.60;6.00;;;20.20;99.90;;;;;;4946938;29;20032;-79
2022/05/03 08:51:32;;;;;;;7.50;6.20;;;20.10;99.90;;;;;;4953874;28;20049;-79
2022/05/03 08:53:59;;;;;;;7.85;6.78;;;20.20;99.90;;;;;;4952477;29;20066;-80
2022/05/03 08:56:26;;;;;;;7.47;6.75;;;19.80;99.90;;;;;;4943202;29;20086;-80
2022/05/03 08:58:52;;;;;;;7.45;6.63;;;19.90;99.90;;;;;;4956343;29;20028;-79
2022/05/03 09:01:18;;;;;;;6.57;5.85;;;19.80;99.90;;;;;;4952634;29;20038;-80
2022/05/03 09:03:44;;;;;;;6.70;6.03;;;19.70;99.80;;;;;;4948552;29;20114;-80
2022/05/03 09:06:10;;;;;;;6.10;5.30;;;19.70;99.40;;;;;;4951087;29;20043;-80
2022/05/03 09:08:37;;;;;;;4.70;4.38;;;19.70;99.20;;;;;;4944002;29;20035;-80
2022/05/03 09:11:14;;;;;;;5.30;4.80;;;20.10;98.60;;;;;;4958130;28;20030;-80
2022/05/03 09:13:40;;;;;;;5.88;5.15;;;20.40;98.40;;;;;;4953601;29;20027;-80
2022/05/03 09:16:14;;;;;;;5.13;4.60;;;20.50;98.60;;;;;;4950966;29;20394;-79
2022/05/03 09:18:44;;;;;;;4.75;4.35;;;20.80;98.10;;;;;;4947585;29;20473;-81
2022/05/03 09:24:10;;;;;;;4.97;4.57;;;21.20;97.00;;;;;;4946568;29;20046;-80
2022/05/03 09:26:37;;;;;;;5.40;4.32;;;20.60;97.60;;;;;;4955112;29;20035;-80
2022/05/03 09:29:11;;;;;;;3.95;3.65;;;20.70;97.40;;;;;;4951746;29;20028;-79
2022/05/03 09:31:41;;;;;;;3.75;3.42;;;20.60;97.20;;;;;;4957092;28;20024;-80
2022/05/03 09:34:23;;;;;;;3.78;3.47;;;20.30;96.40;;;;;;4952117;29;20039;-80
2022/05/03 09:37:09;;;;;;;3.30;2.92;;;19.80;96.70;;;;;;4954610;28;20031;-79
2022/05/03 09:39:42;;;;;;;3.95;3.50;;;19.60;96.00;;;;;;4940447;29;20027;-81
2022/05/03 09:42:12;;;;;;;2.90;2.63;;;19.70;96.50;;;;;;4957579;28;20395;-80
2022/05/03 09:44:58;;;;;;;4.80;3.30;;;19.80;95.80;;;;;;4954116;28;20086;-79
2022/05/03 09:47:33;;;;;;;3.78;2.63;;;20.30;96.10;;;;;;4955035;29;20024;-80
2022/05/03 09:49:59;;;;;;;2.90;2.70;;;20.50;95.70;;;;;;4943052;28;20050;-80
2022/05/03 09:52:30;;;;;;;2.83;2.63;;;20.70;95.40;;;;;;4953898;28;20039;-80
2022/05/03 09:55:05;;;;;;;3.08;2.78;;;21.10;95.00;;;;;;4957605;28;20031;-80
2022/05/03 09:57:35;;;;;;;3.03;2.83;;;20.80;94.90;;;;;;4955592;28;20124;-80
2022/05/03 10:00:02;;;;;;;3.03;2.70;;;20.70;95.40;;;;;;4949265;28;20043;-80
2022/05/03 10:02:29;;;;;;;4.53;2.70;;;21.00;94.80;;;;;;4949713;28;20042;-79
2022/05/03 10:04:57;;;;;;;3.72;3.20;;;20.90;94.80;;;;;;4942360;29;20136;-79
2022/05/03 10:07:23;;;;;;;4.63;2.85;;;21.10;94.70;;;;;;4951750;29;20035;-80
2022/05/03 10:09:50;;;;;;;4.85;2.63;;;21.00;94.80;;;;;;4945123;29;20032;-81
2022/05/03 10:12:16;;;;;;;3.75;3.28;;;20.80;94.70;;;;;;4952048;29;20032;-79
2022/05/03 10:14:43;;;;;;;6.07;3.72;;;20.70;95.00;;;;;;4959936;28;20047;-81
2022/05/03 10:23:18;;;;;;;3.78;3.47;;;20.50;95.60;;;;;;4952237;28;20118;-79
2022/05/03 10:25:47;;;;;;;3.28;3.05;;;20.40;95.20;;;;;;4941630;29;20027;-80
2022/05/03 10:28:13;;;;;;;4.00;3.60;;;20.20;95.70;;;;;;4954293;29;20039;-81
2022/05/03 10:31:05;;;;;;;3.92;3.63;;;20.20;95.20;;;;;;4942423;29;20039;-80
2022/05/03 10:33:30;;;;;;;4.30;2.95;;;20.00;95.30;;;;;;4940759;29;20038;-80
2022/05/03 10:36:01;;;;;;;6.25;3.08;;;20.40;95.40;;;;;;4941430;29;20462;-80
2022/05/03 10:38:46;;;;;;;;;;;20.50;94.70;;;;;;4942378;29;20038;-79
2022/05/03 10:41:23;;;;;;;4.35;3.70;;;20.90;94.90;;;;;;4943437;29;19910;-80
2022/05/03 10:43:49;;;;;;;3.10;2.90;;;21.00;93.60;;;;;;4942407;29;20059;-80
2022/05/03 10:46:21;;;;;;;3.40;3.17;;;20.80;94.00;;;;;;4940938;29;20024;-79
2022/05/03 10:49:11;;;;;;;6.05;2.95;;;20.80;94.30;;;;;;4955550;29;20023;-80
2022/05/03 10:51:37;;;;;;;3.70;2.83;;;21.10;94.30;;;;;;4935043;28;20039;-80
2022/05/03 10:54:04;;;;;;;3.00;2.70;;;21.40;93.70;;;;;;4939774;29;20024;-79
2022/05/03 10:56:30;;;;;;;3.20;2.90;;;21.60;93.10;;;;;;4938680;29;20031;-79
2022/05/03 10:59:16;;;;;;;3.22;2.83;;;21.60;92.80;;;;;;4943029;29;20020;-80
2022/05/03 11:01:53;;;;;;;5.93;3.80;;;21.70;93.10;;;;;;4938191;29;20034;-81
2022/05/03 11:04:20;;;;;;;3.42;3.17;;;22.00;92.20;;;;;;4939924;29;20471;-80
2022/05/03 11:06:47;;;;;;;3.25;2.90;;;21.80;91.90;;;;;;4951945;29;20023;-81
2022/05/03 11:09:17;;;;;;;3.55;3.15;;;21.40;92.00;;;;;;4956515;29;20020;-81
2022/05/03 11:11:43;;;;;;;3.35;3.15;;;21.40;92.20;;;;;;4951922;29;20035;-81
2022/05/03 11:14:21;;;;;;;4.47;3.30;;;21.70;92.00;;;;;;4953486;29;20439;-80
2022/05/03 11:17:08;;;;;;;3.83;3.33;;;21.90;92.10;;;;;;4952058;28;20031;-80
2022/05/03 11:19:54;;;;;;;4.25;3.63;;;21.90;92.00;;;;;;4936203;29;20530;-81
2022/05/03 11:22:31;;;;;;;3.97;3.67;;;21.50;92.00;;;;;;4955393;28;20101;-81
2022/05/03 11:24:58;;;;;;;5.43;4.53;;;21.50;92.10;;;;;;4942567;29;20031;-80
2022/05/03 11:27:25;;;;;;;4.47;3.70;;;22.20;92.00;;;;;;4945321;29;20027;-80
2022/05/03 11:29:57;;;;;;;4.88;4.38;;;22.30;91.70;;;;;;4949687;29;20038;-81
2022/05/03 11:32:32;;;;;;;4.35;3.72;;;21.80;91.90;;;;;;4945694;29;20631;-81
2022/05/03 11:35:03;;;;;;;3.38;3.13;;;22.10;91.80;;;;;;4948645;28;20020;-80
2022/05/03 11:37:29;;;;;;;;;;;22.60;90.80;;;;;;4942929;28;20031;-81
2022/05/03 11:40:08;;;;;;;3.80;3.50;;;22.50;90.40;;;;;;4954444;29;19938;-81
2022/05/03 11:42:38;;;;;;;5.68;4.40;;;23.10;90.30;;;;;;4946847;29;20023;-80
2022/05/03 11:45:07;;;;;;;3.38;3.08;;;23.30;90.10;;;;;;4944954;29;20087;-81
2022/05/03 11:47:39;;;;;;;4.45;3.67;;;23.30;88.60;;;;;;4945188;28;20058;-81
2022/05/03 11:50:05;;;;;;;7.35;3.90;;;22.60;90.00;;;;;;4950954;29;20024;-80
2022/05/03 11:57:59;;;;;;;4.07;3.25;;;23.40;89.00;;;;;;4950096;29;20091;-81
2022/05/03 12:00:25;;;;;;;4.20;3.45;;;23.50;87.40;;;;;;4952297;28;20054;-81
2022/05/03 12:02:51;;;;;;;3.20;2.90;;;23.70;88.20;;;;;;4948569;28;20023;-78
2022/05/03 12:05:19;;;;;;;3.13;2.83;;;23.70;85.00;;;;;;4947716;28;20111;-77
2022/05/03 12:07:50;;;;;;;3.90;3.60;;;23.50;83.40;;;;;;4948906;29;20023;-76
2022/05/03 12:10:29;;;;;;;3.70;3.40;;;23.40;84.30;;;;;;4944552;28;20038;-78
2022/05/03 12:13:12;;;;;;;3.65;3.35;;;22.60;89.60;;;;;;4937861;29;20055;-78
2022/05/03 12:16:00;;;;;;;8.05;4.55;;;22.60;90.80;;;;;;4935802;29;20092;-79
2022/05/03 12:18:34;;;;;;;3.75;3.08;;;22.60;90.20;;;;;;4940358;29;20078;-79
2022/05/03 12:21:09;;;;;;;3.70;3.40;;;22.00;90.50;;;;;;4944003;28;21060;-78
2022/05/03 12:23:38;;;;;;;5.72;3.67;;;21.60;91.60;;;;;;4943130;29;20031;-78
2022/05/03 12:26:15;;;;;;;4.35;4.00;;;21.70;91.90;;;;;;4943287;28;20020;-79
2022/05/03 12:28:43;;;;;;;3.78;3.47;;;21.70;91.00;;;;;;4943326;29;20110;-79
2022/05/03 12:31:12;;;;;;;3.90;3.60;;;21.40;91.70;;;;;;4943410;28;20031;-79
2022/05/03 12:33:48;;;;;;;6.55;4.13;;;21.60;91.90;;;;;;4940858;29;20577;-77
2022/05/03 12:36:44;;;;;;;6.22;3.90;;;21.70;92.10;;;;;;4936951;29;20039;-79
2022/05/03 12:39:17;;;;;;;7.10;3.78;;;22.50;91.60;;;;;;4948423;28;20027;-78
2022/05/03 12:41:46;;;;;;;3.90;3.30;;;22.70;90.50;;;;;;4940897;28;20051;-78
2022/05/03 12:44:13;;;;;;;3.70;3.40;;;22.90;90.40;;;;;;4952822;29;20063;-80
2022/05/03 12:46:40;;;;;;;3.67;3.38;;;22.40;89.90;;;;;;4948250;29;20051;-78
2022/05/03 12:49:11;;;;;;;3.72;3.30;;;22.10;90.00;;;;;;4954295;29;20027;-79
2022/05/03 12:51:47;;;;;;;;;;;21.70;90.60;;;;;;4951367;28;20067;-80
2022/05/03 12:54:14;;;;;;;3.33;3.03;;;21.70;90.20;;;;;;4953576;29;19910;-78
2022/05/03 12:59:25;;;;;;;3.08;2.85;;;21.70;90.00;;;;;;4949572;29;20490;-79
2022/05/03 13:01:57;;;;;;;4.28;2.80;;;21.60;89.40;;;;;;4949077;28;20023;-78
2022/05/03 13:04:23;;;;;;;5.25;2.85;;;21.30;90.40;;;;;;4943804;29;20395;-80
2022/05/03 13:06:49;;;;;;;5.82;2.60;;;20.50;91.50;;;;;;4944905;29;20024;-79
2022/05/03 13:09:16;;;;;;;4.70;2.35;;;20.00;92.20;;;;;;4948082;29;20148;-79
2022/05/03 13:11:43;;;;;;;3.33;2.60;;;19.60;93.20;;;;;;4944549;28;20058;-79
2022/05/03 13:14:09;;;;;;;5.45;2.97;;;19.40;93.90;;;;;;4951741;29;20029;-79
2022/05/03 13:16:35;;;;;;;7.20;3.10;;;19.10;94.30;;;;;;4939925;29;20034;-79
2022/05/03 13:19:01;;;;;;;3.53;2.03;;;18.90;94.20;;;;;;4956911;29;20114;-79
2022/05/03 13:21:27;;;;;;;4.30;2.10;;;18.80;94.10;;;;;;4955276;28;20467;-79
2022/05/03 13:23:53;;;;;;;2.33;2.05;;;18.70;94.50;;;;;;4949297;29;20023;-78
2022/05/03 13:26:19;;;;;;;2.80;2.60;;;18.50;95.10;;;;;;4954886;28;20034;-79
2022/05/03 13:28:45;;;;;;;3.25;2.60;;;18.30;95.80;;;;;;4956240;29;21299;-78
2022/05/03 13:31:15;;;;;;;4.22;2.85;;;18.20;96.20;;;;;;4957900;28;20047;-79
2022/05/03 13:33:40;;;;;;;2.88;2.40;;;18.40;96.00;;;;;;4956717;28;20066;-80
2022/05/03 13:41:35;;;;;;;5.03;3.90;;;18.50;97.60;;;;;;4947315;28;20042;-80
2022/05/03 13:44:02;;;;;;;7.35;4.65;;;18.30;99.00;;;;;;4956204;28;20145;-78
2022/05/03 13:46:27;;;;;;;6.95;3.97;;;18.10;99.90;;;;;;4952977;28;20042;-78
2022/05/03 13:48:53;;;;;;;4.50;4.00;;;18.00;99.90;;;;;;4955414;28;20027;-79
2022/05/03 13:51:19;;;;;;;6.53;4.80;;;17.90;99.90;;;;;;4958163;28;20054;-80
2022/05/03 13:53:46;;;;;;;5.93;4.45;;;17.70;99.90;;;;;;4951578;29;20023;-79
2022/05/03 13:56:14;;;;;;;6.20;5.00;;;17.70;99.90;;;;;;4950019;28;20476;-78
2022/05/03 13:58:40;;;;;;;7.47;5.13;;;17.70;99.90;;;;;;4959822;28;20517;-79
2022/05/03 14:01:06;;;;;;;8.90;5.10;;;17.60;99.90;;;;;;4955974;28;20032;-78
2022/05/03 14:03:31;;;;;;;6.70;5.47;;;17.60;99.90;;;;;;4961162;28;20039;-80
2022/05/03 14:05:57;;;;;;;5.55;5.00;;;17.30;99.90;;;;;;4952520;29;20027;-79
2022/05/03 14:08:22;;;;;;;6.20;5.55;;;17.20;99.90;;;;;;4962848;29;20376;-78
2022/05/03 14:10:48;;;;;;;8.88;5.03;;;17.00;99.90;;;;;;4961960;28;20032;-77
2022/05/03 14:13:13;;;;;;;5.05;4.55;;;17.10;99.90;;;;;;4962603;29;20038;-78
2022/05/03 14:15:39;;;;;;;7.20;4.53;;;17.30;99.90;;;;;;4971693;28;20039;-80
2022/05/03 14:18:05;;;;;;;4.88;4.40;;;17.40;99.90;;;;;;4977700;28;20051;-77
2022/05/03 14:20:30;;;;;;;4.75;4.07;;;17.60;99.90;;;;;;4952885;28;20781;-79
2022/05/03 14:22:56;;;;;;;3.92;2.97;;;17.40;99.90;;;;;;4957733;29;20027;-80
2022/05/03 14:25:25;;;;;;;4.75;3.20;;;17.20;99.90;;;;;;4955077;29;20029;-79
2022/05/03 14:27:51;;;;;;;5.28;3.20;;;17.40;99.90;;;;;;4957010;29;20027;-79
2022/05/03 14:30:18;;;;;;;8.25;4.25;;;17.40;99.90;;;;;;4955520;28;20676;-79
2022/05/03 14:32:47;;;;;;;4.10;3.70;;;17.60;99.90;;;;;;4963323;28;20031;-80
2022/05/03 14:35:14;;;;;;;5.15;4.15;;;17.60;99.90;;;;;;4951967;28;20020;-79
2022/05/03 14:37:40;;;;;;;5.18;4.35;;;17.50;99.90;;;;;;4950339;28;20031;-78
2022/05/03 14:40:07;;;;;;;4.60;3.67;;;17.60;99.90;;;;;;4950267;29;20031;-79
2022/05/03 14:42:33;;;;;;;6.63;3.65;;;17.30;99.90;;;;;;4955603;28;20531;-78
2022/05/03 14:44:58;;;;;;;5.70;3.88;;;16.90;99.90;;;;;;4965540;28;20027;-79
2022/05/03 14:47:24;;;;;;;4.53;4.10;;;16.90;99.90;;;;;;4952255;29;20030;-80
2022/05/03 14:49:50;;;;;;;6.32;3.60;;;16.80;99.90;;;;;;4955555;29;20027;-78
2022/05/03 14:52:17;;;;;;;8.07;5.18;;;16.90;99.90;;;;;;4942046;28;20032;-80
2022/05/03 14:54:44;;;;;;;4.53;4.07;;;17.30;99.90;;;;;;4950038;29;20030;-79
2022/05/03 15:02:53;;;;;;;5.28;3.53;;;16.90;99.90;;;;;;4949896;29;20046;-80
2022/05/03 15:05:23;;;;;;;3.80;3.40;;;16.90;99.90;;;;;;4956290;29;20052;-78
2022/05/03 15:07:49;;;;;;;7.65;4.85;;;16.90;99.90;;;;;;4947132;28;20030;-80
2022/05/03 15:10:16;;;;;;;5.57;4.05;;;16.80;99.90;;;;;;4957974;28;20070;-80
2022/05/03 15:12:42;;;;;;;3.72;2.42;;;16.90;99.90;;;;;;4942529;29;20035;-79
2022/05/03 15:15:08;;;;;;;4.57;4.03;;;16.90;99.90;;;;;;4955262;29;20029;-78
2022/05/03 15:17:34;;;;;;;6.88;3.90;;;16.90;99.90;;;;;;4965457;28;20031;-77
2022/05/03 15:19:59;;;;;;;6.65;3.50;;;17.50;99.90;;;;;;4946907;28;20091;-78
2022/05/03 15:25:09;;;;;;;6.20;3.67;;;17.20;99.90;;;;;;4957792;29;20034;-78
2022/05/03 15:27:35;;;;;;;5.93;3.88;;;17.10;99.90;;;;;;4953076;28;20088;-78
2022/05/03 15:30:03;;;;;;;6.45;4.82;;;16.90;99.90;;;;;;4945893;29;20039;-77
2022/05/03 15:32:31;;;;;;;7.03;4.20;;;16.80;99.90;;;;;;4955690;28;20027;-78
2022/05/03 15:34:57;;;;;;;6.47;3.65;;;16.80;99.90;;;;;;4947953;29;20058;-78
2022/05/03 15:37:24;;;;;;;8.13;4.05;;;17.00;99.90;;;;;;4951656;28;20099;-79
2022/05/03 15:39:53;;;;;;;4.70;4.25;;;16.80;99.90;;;;;;4955010;29;20107;-79
2022/05/03 15:42:23;;;;;;;4.53;3.45;;;16.80;99.90;;;;;;4940150;28;20055;-79
2022/05/03 15:44:54;;;;;;;4.97;4.00;;;16.80;99.90;;;;;;4948364;29;20055;-79
2022/05/03 15:47:28;;;;;;;6.22;3.80;;;16.90;99.90;;;;;;4951178;29;20094;-78
2022/05/03 15:49:54;;;;;;;7.88;3.97;;;16.90;99.90;;;;;;4957180;28;20031;-77
2022/05/03 15:52:21;;;;;;;9.93;4.38;;;16.90;99.90;;;;;;4951567;28;20028;-80
2022/05/03 15:54:48;;;;;;;5.30;4.28;;;17.00;99.90;;;;;;4950827;28;20059;-79
2022/05/03 15:57:13;;;;;;;6.82;4.25;;;17.00;99.90;;;;;;4946362;28;20132;-79
2022/05/03 15:59:39;;;;;;;5.97;4.47;;;17.10;99.90;;;;;;4955482;28;20056;-79
2022/05/03 16:02:06;;;;;;;4.97;4.32;;;17.10;99.90;;;;;;4949794;28;20045;-78
2022/05/03 16:04:32;;;;;;;6.03;3.97;;;17.10;99.90;;;;;;4949083;29;20034;-78
2022/05/03 16:07:03;;;;;;;8.38;4.80;;;17.40;99.90;;;;;;4940950;29;20023;-78
2022/05/03 16:09:28;;;;;;;5.43;3.85;;;17.50;99.90;;;;;;4957372;28;20049;-79
2022/05/03 16:11:54;;;;;;;5.47;4.60;;;17.60;99.90;;;;;;4954661;28;20419;-79
2022/05/03 16:14:21;;;;;;;4.15;3.42;;;17.90;99.90;;;;;;4957482;28;20042;-78
2022/05/03 16:16:47;;;;;;;5.50;3.30;;;18.20;99.90;;;;;;4951316;28;20633;-80
2022/05/03 16:19:14;;;;;;;5.15;2.83;;;18.20;99.90;;;;;;4957272;29;20090;-79
2022/05/03 16:21:40;;;;;;;3.40;2.88;;;18.30;99.90;;;;;;4949029;28;20036;-79
2022/05/03 16:24:06;;;;;;;4.40;2.95;;;18.50;99.90;;;;;;4959034;29;20023;-78
2022/05/03 16:26:32;;;;;;;3.97;2.88;;;18.60;99.90;;;;;;4953669;29;20031;-79
2022/05/03 16:28:57;;;;;;;5.50;3.90;;;18.70;99.90;;;;;;4956352;29;20380;-78
2022/05/03 16:31:23;;;;;;;5.35;3.67;;;18.70;99.90;;;;;;4947409;29;20040;-78
2022/05/03 16:33:52;;;;;;;6.78;4.45;;;18.70;99.90;;;;;;4941203;29;20055;-78
2022/05/03 16:42:13;;;;;;;4.50;3.45;;;18.50;99.90;;;;;;4902255;29;20043;-79
2022/05/03 16:44:42;;;;;;;4.38;3.55;;;18.30;99.90;;;;;;4941250;29;20012;-79
2022/05/03 16:47:09;;;;;;;5.15;3.47;;;18.20;99.90;;;;;;4935695;29;20031;-79
2022/05/03 16:49:38;;;;;;;3.30;2.72;;;18.10;99.90;;;;;;4937288;29;20032;-80
2022/05/03 16:52:08;;;;;;;4.93;2.88;;;18.20;99.90;;;;;;4940411;29;20423;-80
2022/05/03 16:54:34;;;;;;;3.35;2.10;;;18.30;99.90;;;;;;4938518;29;20059;-77
2022/05/03 16:57:00;;;;;;;5.68;2.40;;;18.30;99.90;;;;;;4937897;29;20027;-78
2022/05/03 16:59:26;;;;;;;4.22;2.05;;;18.20;99.90;;;;;;4939959;29;20034;-77
2022/05/03 17:01:52;;;;;;;4.72;2.20;;;18.20;99.90;;;;;;4938951;29;20034;-77
2022/05/03 17:04:19;;;;;;;2.83;2.10;;;18.50;99.90;;;;;;4939047;29;20043;-78
2022/05/03 17:06:44;;;;;;;3.53;2.35;;;18.80;99.90;;;;;;4938400;29;20044;-78
2022/05/03 17:09:11;;;;;;;7.90;5.40;;;19.10;99.90;;;;;;4937822;29;20083;-77
2022/05/03 17:11:37;;;;;;;1.85;1.40;;;19.60;99.90;;;;;;4939820;29;20040;-76
2022/05/03 17:14:08;;;;;;;2.35;2.10;;;19.90;99.90;;;;;;4940245;29;20426;-77
2022/05/03 17:16:34;;;;;;;2.50;1.73;;;20.30;99.90;;;;;;4939694;29;20518;-77
2022/05/03 17:18:59;;;;;;;2.60;1.35;;;20.40;99.90;;;;;;4938175;29;20028;-77
2022/05/03 17:21:26;;;;;;;4.30;2.10;;;20.60;99.90;;;;;;4939818;29;20422;-77
2022/05/03 17:23:52;;;;;;;3.10;2.00;;;20.70;99.90;;;;;;4938683;29;20111;-79
2022/05/03 17:26:23;;;;;;;2.50;1.98;;;20.90;99.90;;;;;;4938126;29;20484;-78
2022/05/03 17:28:52;;;;;;;2.47;2.22;;;21.00;99.90;;;;;;4939602;29;20075;-76
2022/05/03 17:31:19;;;;;;;3.45;2.40;;;21.00;99.90;;;;;;4936880;29;20594;-77
2022/05/03 17:33:47;;;;;;;4.65;2.50;;;21.10;99.90;;;;;;4937247;29;20040;-78
2022/05/03 17:36:16;;;;;;;2.00;1.90;;;20.70;99.90;;;;;;4938123;29;20404;-77
2022/05/03 17:38:42;;;;;;;2.58;2.38;;;20.10;99.90;;;;;;4939468;29;20242;-77
2022/05/03 17:41:10;;;;;;;2.63;1.85;;;19.80;99.90;;;;;;4932643;29;20027;-77
2022/05/03 17:43:36;;;;;;;2.92;2.08;;;19.30;99.90;;;;;;4939392;29;20027;-76
2022/05/03 17:46:02;;;;;;;2.38;1.90;;;19.00;99.90;;;;;;4937216;29;20031;-77
2022/05/03 17:48:27;;;;;;;4.03;2.88;;;18.70;99.90;;;;;;4939246;29;20059;-77
2022/05/03 17:50:53;;;;;;;5.35;2.90;;;18.60;99.90;;;;;;4939014;29;20568;-77
2022/05/03 17:56:03;;;;;;;6.78;3.50;;;18.40;99.90;;;;;;4938340;29;20031;-76
2022/05/03 17:58:29;;;;;;;3.92;2.90;;;18.10;99.90;;;;;;4934740;29;20028;-76
2022/05/03 18:00:55;;;;;;;4.63;3.17;;;17.80;99.90;;;;;;4935996;29;20106;-77
2022/05/03 18:03:21;;;;;;;4.60;3.45;;;17.60;99.90;;;;;;4936266;29;20047;-75
2022/05/03 18:05:46;;;;;;;4.10;3.58;;;17.40;99.90;;;;;;4930217;29;22386;-76
2022/05/03 18:08:12;;;;;;;6.35;3.90;;;17.30;99.90;;;;;;4936471;29;20119;-76
2022/05/03 18:10:38;;;;;;;4.20;3.60;;;17.10;99.90;;;;;;4937778;29;20042;-75
2022/05/03 18:13:03;;;;;;;5.03;4.50;;;16.90;99.90;;;;;;4939410;29;20067;-77
2022/05/03 18:15:29;;;;;;;3.75;2.53;;;16.80;99.90;;;;;;4937866;28;20119;-77
2022/05/03 18:17:56;;;;;;;4.50;3.83;;;16.70;99.90;;;;;;4938616;29;20027;-76
2022/05/03 18:20:22;;;;;;;5.05;3.80;;;16.60;99.90;;;;;;4935093;29;20096;-77
2022/05/03 18:22:49;;;;;;;4.15;3.38;;;16.50;99.90;;;;;;4946731;29;20075;-78
2022/05/03 18:25:16;;;;;;;3.40;3.10;;;16.30;99.90;;;;;;4941786;29;20031;-76
2022/05/03 18:27:41;;;;;;;3.83;3.05;;;16.20;99.90;;;;;;4950989;29;20024;-76
2022/05/03 18:30:07;;;;;;;5.55;3.70;;;16.10;99.90;;;;;;4957658;29;20052;-75
2022/05/03 18:32:33;;;;;;;5.22;3.75;;;16.00;99.90;;;;;;4956706;28;20027;-76
2022/05/03 18:34:59;;;;;;;5.53;3.97;;;15.80;99.90;;;;;;4959075;28;20031;-76
2022/05/03 18:37:24;;;;;;;5.22;4.15;;;15.80;99.90;;;;;;4965494;28;20039;-77
2022/05/03 18:39:50;;;;;;;5.80;4.82;;;15.60;99.90;;;;;;4949705;29;20044;-76
2022/05/03 18:42:15;;;;;;;6.80;4.45;;;15.50;99.90;;;;;;4942508;29;20027;-77
2022/05/03 18:44:41;;;;;;;4.80;4.32;;;15.50;99.90;;;;;;4943377;28;20095;-77
2022/05/03 18:47:07;;;;;;;5.88;5.13;;;15.40;99.90;;;;;;4944639;29;20058;-79
2022/05/03 18:49:32;;;;;;;5.78;4.75;;;15.40;99.90;;;;;;4953254;29;20020;-79
2022/05/03 18:51:58;;;;;;;6.30;4.55;;;15.30;99.90;;;;;;4953996;29;20032;-74
2022/05/03 18:57:08;;;;;;;8.18;5.50;;;15.30;99.90;;;;;;4950133;29;20023;-74
2022/05/03 18:59:33;;;;;;;10.85;6.10;;;15.40;99.90;;;;;;4957039;28;20095;-77
2022/05/03 19:02:01;;;;;;;8.98;6.00;;;15.30;99.90;;;;;;4958429;28;20052;-79
2022/05/03 19:04:26;;;;;;;6.07;5.03;;;15.30;99.90;;;;;;4957443;28;20030;-78
2022/05/03 19:06:52;;;;;;;4.15;3.75;;;15.20;99.90;;;;;;4941185;29;20032;-75
2022/05/03 19:09:18;;;;;;;3.63;3.28;;;15.20;99.90;;;;;;4935888;29;20098;-74